Portada
METAR-TAF:

METAR-TAF

Aeroports :

Sabzevar, Iran

latitud: 36-13N, longitud: 057-40E, altitud: 941 m

Observació

L'informe es va fer fa 10 hores i 43 minuts, a les 15:00 UTC
Vent 6 kt del Est
Temperatura 7°C
Humitat 66%
Pressió 1024 hPa
Visibilitat 10 km o més
Escasses núvols a una alçada de 3500 ft

METAR: OIMS 051500Z 10006KT 9999 FEW035 07/01 Q1024

Hora: 05:13 (01:43 UTC)


TAF: manca

Observacions i pronòstics meteorològics de més de 4000 aeroports (METAR i TAF).

Les estacions disponibles són els punts grocs i vermells al mapa.

Posi el ratolí al punt desitjat per veure el nom de l'estació.

Feu clic per veure les observacions i els pronòstics meteorològics.

Per canviar el mapa: feu clic els botons verds amb una creu de color negre per apropar; al botó verd amb un guió per allunyar la imatge; o en les fletxes verdes per a mapes adjacents.


METAR-TAF: